Terminal Aerodrome Forecast
Issued by NWS

Home | Current Version | Previous Version | Text Only | Print | Product List | Glossary On
Versions: 1 2 3 4 5 6 7 8 9 10 11 12 13 14 15 16 17 18 19 20 21 22 23 24 25 26
000
FTUS41 KCAR 230044 AAA
TAFFVE
TAF AMD
KFVE 230044Z 2301/2324 33007KT 2SM -SN BR OVC003
     FM230200 33009KT 3SM -SN BR BKN010
     FM230400 33011G20KT 3SM -SN BR BKN025
     FM230500 33012G22KT P6SM BKN050
     FM230700 32012G22KT P6SM SCT060
     FM231700 29008KT P6SM FEW250=

USA.gov is the U.S. government's official web portal to all federal, state and local government web resources and services.